Time;durP1;ratioP1;P1;durP2;ratioP2;P2;SDS_P1;SDS_P2;PMS_P1;PMS_P2;Temp;Humidity;BMP_temperature;BMP_pressure;BME280_temperature;BME280_humidity;BME280_pressure;Samples;Min_cycle;Max_cycle;Signal;HPM_P1;HPM_P2
2022/02/21 00:00:45;;;;;;;1.23;1.10;;;;;;;;;;5012594;28;20165;-43
2022/02/21 00:03:11;;;;;;;3.03;1.40;;;;;;;;;;5012896;28;20171;-43
2022/02/21 00:05:37;;;;;;;2.53;1.60;;;;;;;;;;5012678;28;20780;-43
2022/02/21 00:08:03;;;;;;;2.10;1.30;;;;;;;;;;5012554;28;20423;-43
2022/02/21 00:10:29;;;;;;;4.53;1.30;;;;;;;;;;5012437;28;20538;-43
2022/02/21 00:12:55;;;;;;;3.10;2.17;;;;;;;;;;5012557;28;20411;-43
2022/02/21 00:15:23;;;;;;;3.90;1.83;;;;;;;;;;5012525;28;20602;-43
2022/02/21 00:17:53;;;;;;;2.17;1.92;;;;;;;;;;5012654;28;20450;-43
2022/02/21 00:20:19;;;;;;;1.40;1.30;;;;;;;;;;5012481;28;20586;-43
2022/02/21 00:22:45;;;;;;;2.20;1.85;;;;;;;;;;5012514;28;20199;-43
2022/02/21 00:25:11;;;;;;;2.07;1.40;;;;;;;;;;5012488;28;20204;-43
2022/02/21 00:27:37;;;;;;;4.10;1.80;;;;;;;;;;5012388;28;20469;-43
2022/02/21 00:30:04;;;;;;;3.08;2.05;;;;;;;;;;5012108;28;20621;-43
2022/02/21 00:32:30;;;;;;;3.15;1.60;;;;;;;;;;5012181;28;20176;-43
2022/02/21 00:34:56;;;;;;;2.20;2.00;;;;;;;;;;5012199;28;20537;-43
2022/02/21 00:37:22;;;;;;;2.83;2.43;;;;;;;;;;5011939;28;20512;-43
2022/02/21 00:39:48;;;;;;;10.87;3.30;;;;;;;;;;5011639;28;20399;-43
2022/02/21 00:42:14;;;;;;;6.73;2.60;;;;;;;;;;5012123;28;20403;-43
2022/02/21 00:44:41;;;;;;;10.60;3.07;;;;;;;;;;5011991;28;20392;-43
2022/02/21 00:47:07;;;;;;;6.00;3.03;;;;;;;;;;5011236;28;20506;-43
2022/02/21 00:49:33;;;;;;;8.00;3.20;;;;;;;;;;5011887;28;20173;-43
2022/02/21 00:51:59;;;;;;;3.53;2.63;;;;;;;;;;5012243;28;20667;-43
2022/02/21 00:54:28;;;;;;;9.13;1.97;;;;;;;;;;5011846;28;20774;-43
2022/02/21 00:56:54;;;;;;;4.95;2.25;;;;;;;;;;5011415;28;20465;-43
2022/02/21 00:59:20;;;;;;;5.95;2.15;;;;;;;;;;5012392;28;20168;-42
2022/02/21 01:01:46;;;;;;;4.07;2.20;;;;;;;;;;5011643;28;20169;-42
2022/02/21 01:04:12;;;;;;;5.63;2.33;;;;;;;;;;5011501;28;20408;-43
2022/02/21 01:06:38;;;;;;;7.47;2.20;;;;;;;;;;5011649;28;20200;-43
2022/02/21 01:09:04;;;;;;;6.10;2.03;;;;;;;;;;5011574;28;20374;-43
2022/02/21 01:11:33;;;;;;;4.90;1.90;;;;;;;;;;5011462;28;20408;-43
2022/02/21 01:13:59;;;;;;;4.38;2.10;;;;;;;;;;5014882;28;20823;-43
2022/02/21 01:16:25;;;;;;;8.55;2.83;;;;;;;;;;5014138;28;20215;-43
2022/02/21 01:18:51;;;;;;;4.67;2.10;;;;;;;;;;5013638;28;20223;-43
2022/02/21 01:21:17;;;;;;;7.90;2.88;;;;;;;;;;5014742;28;20475;-43
2022/02/21 01:23:43;;;;;;;5.63;2.23;;;;;;;;;;5014211;28;20231;-43
2022/02/21 01:26:09;;;;;;;16.97;2.33;;;;;;;;;;5013427;28;20427;-44
2022/02/21 01:28:35;;;;;;;3.77;2.53;;;;;;;;;;5013948;28;20408;-44
2022/02/21 01:31:01;;;;;;;9.50;2.10;;;;;;;;;;5013203;28;20534;-44
2022/02/21 01:33:30;;;;;;;4.15;2.15;;;;;;;;;;5013950;28;20414;-44
2022/02/21 01:35:56;;;;;;;5.55;2.20;;;;;;;;;;5014085;28;20563;-44
2022/02/21 01:38:23;;;;;;;4.80;1.75;;;;;;;;;;5014201;28;20213;-44
2022/02/21 01:40:49;;;;;;;9.00;2.50;;;;;;;;;;5014290;28;20195;-44
2022/02/21 01:43:15;;;;;;;7.80;2.88;;;;;;;;;;5015163;28;20165;-44
2022/02/21 01:45:41;;;;;;;4.20;1.70;;;;;;;;;;5015226;28;20207;-43
2022/02/21 01:48:07;;;;;;;5.53;2.03;;;;;;;;;;5014169;28;20432;-44
2022/02/21 01:50:33;;;;;;;6.97;1.80;;;;;;;;;;5013947;28;20506;-44
2022/02/21 01:52:59;;;;;;;5.40;2.10;;;;;;;;;;5014852;28;20892;-44
2022/02/21 01:55:25;;;;;;;10.97;3.23;;;;;;;;;;5014958;28;20826;-44
2022/02/21 01:57:51;;;;;;;2.95;1.60;;;;;;;;;;5015009;28;20493;-45
2022/02/21 02:00:18;;;;;;;8.23;2.60;;;;;;;;;;5018451;28;20633;-44
2022/02/21 02:02:46;;;;;;;6.70;2.00;;;;;;;;;;5016982;28;20407;-44
2022/02/21 02:05:13;;;;;;;9.98;3.38;;;;;;;;;;5019078;28;20167;-44
2022/02/21 02:07:40;;;;;;;5.85;2.30;;;;;;;;;;5018878;28;20262;-44
2022/02/21 02:10:07;;;;;;;7.63;2.10;;;;;;;;;;5018833;28;20222;-44
2022/02/21 02:12:33;;;;;;;11.65;2.35;;;;;;;;;;5019312;28;20179;-45
2022/02/21 02:14:59;;;;;;;5.22;1.90;;;;;;;;;;5018157;28;20197;-44
2022/02/21 02:17:25;;;;;;;4.95;2.15;;;;;;;;;;5018517;28;20204;-44
2022/02/21 02:19:51;;;;;;;3.03;2.03;;;;;;;;;;5018840;28;20214;-44
2022/02/21 02:22:17;;;;;;;5.47;2.30;;;;;;;;;;5019218;28;20402;-44
2022/02/21 02:24:44;;;;;;;6.77;2.33;;;;;;;;;;5019478;28;20168;-44
2022/02/21 02:27:10;;;;;;;8.45;2.10;;;;;;;;;;5019057;28;20423;-44
2022/02/21 02:29:37;;;;;;;8.25;2.45;;;;;;;;;;5018873;28;20184;-44
2022/02/21 02:32:04;;;;;;;5.03;1.52;;;;;;;;;;5019263;28;20175;-44
2022/02/21 02:34:30;;;;;;;9.27;3.40;;;;;;;;;;5019444;28;20714;-44
2022/02/21 02:36:55;;;;;;;6.67;2.20;;;;;;;;;;5019559;28;20486;-44
2022/02/21 02:39:23;;;;;;;14.57;3.30;;;;;;;;;;5018606;28;20761;-43
2022/02/21 02:41:50;;;;;;;8.02;2.63;;;;;;;;;;5019247;28;20910;-44
2022/02/21 02:44:16;;;;;;;10.75;2.85;;;;;;;;;;5018407;28;20219;-44
2022/02/21 02:46:42;;;;;;;9.53;2.33;;;;;;;;;;5018454;28;20756;-44
2022/02/21 02:49:08;;;;;;;9.32;2.83;;;;;;;;;;5018166;28;20494;-44
2022/02/21 02:51:34;;;;;;;9.88;2.50;;;;;;;;;;5018647;28;20169;-44
2022/02/21 02:54:01;;;;;;;10.10;2.33;;;;;;;;;;5017453;28;20175;-44
2022/02/21 02:56:27;;;;;;;12.35;2.53;;;;;;;;;;5017918;28;20208;-43
2022/02/21 02:58:53;;;;;;;7.72;2.80;;;;;;;;;;5018154;28;20291;-44
2022/02/21 03:01:19;;;;;;;10.40;2.70;;;;;;;;;;5017659;28;20165;-44
2022/02/21 03:03:45;;;;;;;13.63;2.60;;;;;;;;;;5018058;28;20219;-44
2022/02/21 03:06:11;;;;;;;7.97;2.80;;;;;;;;;;5017841;28;20430;-43
2022/02/21 03:08:37;;;;;;;6.77;2.10;;;;;;;;;;5016553;28;20408;-44
2022/02/21 03:11:03;;;;;;;12.53;2.63;;;;;;;;;;5017382;28;20498;-44
2022/02/21 03:13:28;;;;;;;11.73;3.40;;;;;;;;;;5017300;28;20411;-44
2022/02/21 03:15:54;;;;;;;16.20;2.97;;;;;;;;;;5017251;28;20918;-44
2022/02/21 03:18:20;;;;;;;4.32;2.05;;;;;;;;;;5017149;28;20455;-44
2022/02/21 03:20:46;;;;;;;4.00;1.93;;;;;;;;;;5017039;28;20211;-44
2022/02/21 03:23:12;;;;;;;6.17;2.33;;;;;;;;;;5016911;28;20544;-43
2022/02/21 03:25:38;;;;;;;5.20;2.40;;;;;;;;;;5017600;28;20430;-43
2022/02/21 03:28:04;;;;;;;11.10;3.30;;;;;;;;;;5017821;28;20455;-45
2022/02/21 03:30:30;;;;;;;6.22;2.53;;;;;;;;;;5016630;28;20824;-45
2022/02/21 03:32:57;;;;;;;6.53;2.17;;;;;;;;;;5017027;28;20233;-44
2022/02/21 03:35:23;;;;;;;3.83;2.58;;;;;;;;;;5017067;28;20414;-44
2022/02/21 03:37:49;;;;;;;10.65;3.17;;;;;;;;;;5017617;28;20231;-45
2022/02/21 03:40:15;;;;;;;10.40;2.87;;;;;;;;;;5016442;28;20295;-44
2022/02/21 03:42:41;;;;;;;9.52;2.53;;;;;;;;;;5015198;28;20410;-44
2022/02/21 03:45:07;;;;;;;5.43;2.22;;;;;;;;;;5016833;28;20175;-43
2022/02/21 03:47:33;;;;;;;9.63;3.17;;;;;;;;;;5016835;28;20250;-44
2022/02/21 03:49:59;;;;;;;6.03;2.60;;;;;;;;;;5016377;28;20172;-44
2022/02/21 03:52:25;;;;;;;7.73;2.60;;;;;;;;;;5016875;28;20911;-44
2022/02/21 03:54:51;;;;;;;8.80;2.70;;;;;;;;;;5016972;28;20409;-43
2022/02/21 03:57:17;;;;;;;5.70;2.37;;;;;;;;;;5016709;28;20463;-44
2022/02/21 03:59:43;;;;;;;5.70;3.50;;;;;;;;;;5016230;28;20404;-44
2022/02/21 04:02:09;;;;;;;4.50;3.05;;;;;;;;;;5016366;28;20164;-44
2022/02/21 04:04:35;;;;;;;7.83;1.73;;;;;;;;;;5015568;28;20176;-45
2022/02/21 04:07:01;;;;;;;16.23;2.90;;;;;;;;;;5016445;28;20486;-44
2022/02/21 04:09:27;;;;;;;7.50;1.97;;;;;;;;;;5015708;28;20591;-44
2022/02/21 04:11:53;;;;;;;6.40;2.20;;;;;;;;;;5015303;28;20403;-44
2022/02/21 04:14:19;;;;;;;12.73;2.70;;;;;;;;;;5015415;28;20178;-45
2022/02/21 04:16:45;;;;;;;7.33;2.20;;;;;;;;;;5015295;28;20423;-44
2022/02/21 04:19:11;;;;;;;10.73;2.83;;;;;;;;;;5015202;28;20458;-44
2022/02/21 04:21:38;;;;;;;6.50;2.23;;;;;;;;;;5015106;28;20172;-44
2022/02/21 04:24:04;;;;;;;6.35;1.77;;;;;;;;;;5016379;28;20777;-43
2022/02/21 04:26:30;;;;;;;6.10;3.30;;;;;;;;;;5015295;28;20629;-44
2022/02/21 04:28:56;;;;;;;6.63;3.00;;;;;;;;;;5016226;28;20176;-43
2022/02/21 04:31:22;;;;;;;7.63;2.10;;;;;;;;;;5016344;28;20501;-44
2022/02/21 04:33:48;;;;;;;11.50;2.60;;;;;;;;;;5015203;28;20403;-44
2022/02/21 04:36:15;;;;;;;7.07;2.27;;;;;;;;;;5015618;28;20500;-44
2022/02/21 04:38:41;;;;;;;7.07;2.70;;;;;;;;;;5015654;28;20490;-44
2022/02/21 04:41:07;;;;;;;5.55;2.45;;;;;;;;;;5015453;28;20291;-44
2022/02/21 04:43:33;;;;;;;3.53;1.80;;;;;;;;;;5015641;28;20223;-45
2022/02/21 04:45:59;;;;;;;7.75;2.10;;;;;;;;;;5016188;28;20873;-44
2022/02/21 04:48:26;;;;;;;8.85;2.78;;;;;;;;;;5016138;28;20171;-45
2022/02/21 04:50:52;;;;;;;7.28;2.40;;;;;;;;;;5015577;28;20298;-45
2022/02/21 04:53:18;;;;;;;5.20;1.75;;;;;;;;;;5015637;28;20164;-44
2022/02/21 04:55:44;;;;;;;15.63;2.47;;;;;;;;;;5015731;28;20176;-45
2022/02/21 04:58:10;;;;;;;4.15;2.28;;;;;;;;;;5015092;28;20467;-44
2022/02/21 05:00:36;;;;;;;7.97;2.30;;;;;;;;;;5015830;28;20617;-44
2022/02/21 05:03:02;;;;;;;6.00;2.10;;;;;;;;;;5015280;28;20215;-44
2022/02/21 05:05:29;;;;;;;2.88;1.83;;;;;;;;;;5014593;28;20175;-44
2022/02/21 05:07:55;;;;;;;4.82;1.85;;;;;;;;;;5014609;28;20659;-44
2022/02/21 05:10:21;;;;;;;1.67;1.58;;;;;;;;;;5013465;28;20172;-43
2022/02/21 05:12:47;;;;;;;11.57;2.53;;;;;;;;;;5013522;28;20207;-44
2022/02/21 05:15:13;;;;;;;5.50;1.80;;;;;;;;;;5013527;28;20902;-43
2022/02/21 05:17:39;;;;;;;3.63;1.95;;;;;;;;;;5013589;28;20849;-45
2022/02/21 05:20:07;;;;;;;10.73;2.70;;;;;;;;;;5013395;28;20168;-44
2022/02/21 05:22:33;;;;;;;5.03;2.22;;;;;;;;;;5014260;28;20174;-44
2022/02/21 05:24:59;;;;;;;6.10;2.03;;;;;;;;;;5014689;28;20205;-44
2022/02/21 05:27:25;;;;;;;5.83;2.43;;;;;;;;;;5015042;28;20846;-43
2022/02/21 05:29:51;;;;;;;6.00;2.45;;;;;;;;;;5014600;28;20399;-44
2022/02/21 05:32:18;;;;;;;13.27;2.50;;;;;;;;;;5015036;28;20183;-44
2022/02/21 05:34:43;;;;;;;4.93;2.10;;;;;;;;;;5015659;28;20628;-44
2022/02/21 05:37:10;;;;;;;9.57;2.90;;;;;;;;;;5015255;28;20210;-44
2022/02/21 05:39:36;;;;;;;6.53;3.00;;;;;;;;;;5014864;28;20423;-44
2022/02/21 05:42:02;;;;;;;7.60;3.30;;;;;;;;;;5014887;28;20172;-44
2022/02/21 05:44:28;;;;;;;5.18;2.33;;;;;;;;;;5014014;28;20214;-45
2022/02/21 05:46:54;;;;;;;5.30;3.00;;;;;;;;;;5013942;28;20283;-44
2022/02/21 05:49:20;;;;;;;8.82;2.67;;;;;;;;;;5014501;28;20422;-44
2022/02/21 05:51:46;;;;;;;6.43;2.73;;;;;;;;;;5014733;28;20172;-44
2022/02/21 05:54:12;;;;;;;14.13;3.20;;;;;;;;;;5015177;28;20407;-43
2022/02/21 05:56:38;;;;;;;9.23;2.60;;;;;;;;;;5015118;28;20455;-43
2022/02/21 05:59:04;;;;;;;4.63;2.45;;;;;;;;;;5014623;28;20204;-44
2022/02/21 06:01:30;;;;;;;3.17;2.30;;;;;;;;;;5014118;28;20222;-44
2022/02/21 06:03:56;;;;;;;9.50;2.40;;;;;;;;;;5013759;28;20398;-43
2022/02/21 06:06:22;;;;;;;10.40;3.60;;;;;;;;;;5013837;28;20188;-44
2022/02/21 06:08:48;;;;;;;5.70;2.30;;;;;;;;;;5014052;28;20407;-46
2022/02/21 06:11:14;;;;;;;5.97;2.80;;;;;;;;;;5013501;28;20411;-44
2022/02/21 06:13:40;;;;;;;2.70;2.50;;;;;;;;;;5013235;28;20407;-44
2022/02/21 06:16:06;;;;;;;9.83;2.70;;;;;;;;;;5012692;28;20891;-44
2022/02/21 06:18:32;;;;;;;10.40;2.77;;;;;;;;;;5011832;28;20562;-43
2022/02/21 06:20:58;;;;;;;6.43;2.27;;;;;;;;;;5012274;28;20399;-43
2022/02/21 06:23:24;;;;;;;4.65;2.58;;;;;;;;;;5013555;28;20497;-43
2022/02/21 06:25:50;;;;;;;7.43;2.30;;;;;;;;;;5013100;28;20173;-44
2022/02/21 06:28:16;;;;;;;6.00;2.30;;;;;;;;;;5012968;28;20175;-44
2022/02/21 06:30:42;;;;;;;9.43;3.30;;;;;;;;;;5013444;28;20883;-45
2022/02/21 06:33:08;;;;;;;4.23;2.90;;;;;;;;;;5012687;28;20411;-44
2022/02/21 06:35:34;;;;;;;3.17;1.83;;;;;;;;;;5012935;28;20492;-44
2022/02/21 06:38:00;;;;;;;6.80;2.40;;;;;;;;;;5012896;28;20695;-46
2022/02/21 06:40:28;;;;;;;6.88;2.20;;;;;;;;;;5013120;28;20533;-44
2022/02/21 06:42:54;;;;;;;6.95;2.65;;;;;;;;;;5013197;28;20199;-44
2022/02/21 06:45:20;;;;;;;4.63;2.58;;;;;;;;;;5015690;28;20231;-44
2022/02/21 06:47:46;;;;;;;5.78;2.15;;;;;;;;;;5017452;28;20637;-45
2022/02/21 06:50:12;;;;;;;6.95;2.42;;;;;;;;;;5016944;28;20167;-43
2022/02/21 06:52:38;;;;;;;3.73;1.97;;;;;;;;;;5017418;28;20191;-44
2022/02/21 06:55:05;;;;;;;4.03;2.17;;;;;;;;;;5017155;28;20892;-44
2022/02/21 06:57:31;;;;;;;8.45;2.67;;;;;;;;;;5016634;28;20853;-44
2022/02/21 06:59:57;;;;;;;4.97;2.03;;;;;;;;;;5016785;28;20247;-44
2022/02/21 07:02:23;;;;;;;10.27;2.72;;;;;;;;;;5015540;28;20771;-44
2022/02/21 07:04:49;;;;;;;6.43;2.10;;;;;;;;;;5016368;28;20196;-44
2022/02/21 07:07:15;;;;;;;8.00;2.83;;;;;;;;;;5016411;28;20419;-44
2022/02/21 07:09:41;;;;;;;6.50;2.10;;;;;;;;;;5016277;28;20191;-44
2022/02/21 07:12:08;;;;;;;11.67;4.40;;;;;;;;;;5016900;28;20567;-43
2022/02/21 07:14:34;;;;;;;11.57;2.70;;;;;;;;;;5016504;28;20407;-44
2022/02/21 07:17:00;;;;;;;8.82;2.83;;;;;;;;;;5016816;28;20562;-44
2022/02/21 07:19:27;;;;;;;4.53;2.20;;;;;;;;;;5016432;28;20168;-44
2022/02/21 07:21:53;;;;;;;2.78;2.05;;;;;;;;;;5016615;28;20434;-44
2022/02/21 07:24:19;;;;;;;6.38;2.40;;;;;;;;;;5017220;28;20175;-44
2022/02/21 07:26:45;;;;;;;5.43;2.10;;;;;;;;;;5016681;28;20544;-44
2022/02/21 07:29:11;;;;;;;12.20;2.23;;;;;;;;;;5016686;28;20183;-44
2022/02/21 07:31:38;;;;;;;5.68;1.40;;;;;;;;;;5017420;28;20407;-43
2022/02/21 07:34:04;;;;;;;4.85;2.20;;;;;;;;;;5017456;28;20169;-44
2022/02/21 07:36:31;;;;;;;4.72;2.35;;;;;;;;;;5017316;28;20226;-44
2022/02/21 07:38:57;;;;;;;6.38;2.25;;;;;;;;;;5016765;28;20751;-43
2022/02/21 07:41:23;;;;;;;7.95;2.28;;;;;;;;;;5016958;28;20169;-44
2022/02/21 07:43:49;;;;;;;12.03;2.53;;;;;;;;;;5017142;28;20200;-44
2022/02/21 07:46:19;;;;;;;4.30;2.05;;;;;;;;;;5016648;28;20442;-45
2022/02/21 07:48:45;;;;;;;9.48;3.00;;;;;;;;;;5013143;28;20230;-43
2022/02/21 07:51:11;;;;;;;9.87;2.57;;;;;;;;;;5012944;28;20588;-43
2022/02/21 07:53:37;;;;;;;13.23;2.80;;;;;;;;;;5012828;28;20411;-43
2022/02/21 07:56:03;;;;;;;15.23;2.53;;;;;;;;;;5011518;28;20879;-43
2022/02/21 07:58:29;;;;;;;4.88;2.40;;;;;;;;;;5012828;28;21053;-43
2022/02/21 08:00:55;;;;;;;6.63;2.93;;;;;;;;;;5012757;28;20263;-43
2022/02/21 08:03:21;;;;;;;12.32;2.70;;;;;;;;;;5012878;28;20449;-43
2022/02/21 08:05:47;;;;;;;10.50;3.40;;;;;;;;;;5012932;28;20243;-43
2022/02/21 08:08:13;;;;;;;16.30;3.00;;;;;;;;;;5012692;28;20654;-43
2022/02/21 08:10:39;;;;;;;9.00;2.23;;;;;;;;;;5012556;28;20453;-43
2022/02/21 08:13:05;;;;;;;8.57;2.97;;;;;;;;;;5012702;28;20917;-43
2022/02/21 08:15:31;;;;;;;12.77;2.87;;;;;;;;;;5012740;28;20829;-43
2022/02/21 08:17:57;;;;;;;9.00;3.07;;;;;;;;;;5012436;28;20871;-43
2022/02/21 08:20:24;;;;;;;6.82;3.10;;;;;;;;;;5012358;28;20400;-43
2022/02/21 08:22:51;;;;;;;4.70;1.85;;;;;;;;;;5012335;28;20294;-43
2022/02/21 08:25:17;;;;;;;7.93;2.80;;;;;;;;;;5012476;28;20310;-43
2022/02/21 08:27:44;;;;;;;11.23;2.25;;;;;;;;;;5012319;28;20192;-42
2022/02/21 08:30:12;;;;;;;10.90;2.45;;;;;;;;;;5012206;28;20175;-43
2022/02/21 08:32:39;;;;;;;10.30;2.75;;;;;;;;;;5012302;28;20169;-43
2022/02/21 08:35:05;;;;;;;10.70;3.00;;;;;;;;;;5012407;28;20743;-43
2022/02/21 08:37:31;;;;;;;8.95;3.13;;;;;;;;;;5012073;28;20219;-43
2022/02/21 08:39:57;;;;;;;18.03;3.70;;;;;;;;;;5012190;28;20543;-43
2022/02/21 08:42:23;;;;;;;5.33;2.37;;;;;;;;;;5012326;28;20395;-43
2022/02/21 08:44:49;;;;;;;6.10;2.60;;;;;;;;;;5012271;28;20474;-43
2022/02/21 08:47:16;;;;;;;6.17;2.17;;;;;;;;;;5012161;28;20672;-43
2022/02/21 08:49:42;;;;;;;10.93;2.73;;;;;;;;;;5012073;28;20400;-43
2022/02/21 08:52:09;;;;;;;10.20;2.33;;;;;;;;;;5012391;28;20474;-43
2022/02/21 08:54:36;;;;;;;6.57;1.97;;;;;;;;;;5012044;28;20772;-43
2022/02/21 08:57:02;;;;;;;10.47;2.87;;;;;;;;;;5011744;28;20439;-43
2022/02/21 08:59:28;;;;;;;2.83;2.00;;;;;;;;;;5011528;28;20503;-43
2022/02/21 09:01:54;;;;;;;4.80;1.80;;;;;;;;;;5011948;28;20436;-43
2022/02/21 09:04:20;;;;;;;3.40;2.20;;;;;;;;;;5011824;28;20412;-43
2022/02/21 09:06:46;;;;;;;8.13;2.23;;;;;;;;;;5011265;28;20807;-43
2022/02/21 09:09:12;;;;;;;3.43;2.23;;;;;;;;;;5011582;28;20497;-43
2022/02/21 09:11:38;;;;;;;15.40;2.57;;;;;;;;;;5011807;28;20499;-43
2022/02/21 09:14:04;;;;;;;5.97;2.47;;;;;;;;;;5011808;28;20413;-43
2022/02/21 09:16:30;;;;;;;10.70;3.40;;;;;;;;;;5011700;28;20957;-43
2022/02/21 09:18:56;;;;;;;2.60;1.40;;;;;;;;;;5011195;28;20500;-43
2022/02/21 09:21:22;;;;;;;8.50;2.37;;;;;;;;;;5010143;28;20413;-43
2022/02/21 09:23:48;;;;;;;5.83;2.17;;;;;;;;;;5011391;28;20405;-43
2022/02/21 09:26:14;;;;;;;5.40;2.20;;;;;;;;;;5011349;28;20426;-43
2022/02/21 09:28:40;;;;;;;7.70;1.80;;;;;;;;;;5011310;28;20428;-43
2022/02/21 09:31:06;;;;;;;6.60;1.80;;;;;;;;;;5011220;28;20442;-43
2022/02/21 09:33:32;;;;;;;3.23;1.53;;;;;;;;;;5011145;28;20954;-43
2022/02/21 09:35:58;;;;;;;8.00;2.20;;;;;;;;;;5011563;28;20411;-43
2022/02/21 09:38:24;;;;;;;6.93;1.70;;;;;;;;;;5011219;28;20463;-43
2022/02/21 09:40:56;;;;;;;5.10;2.00;;;;;;;;;;5011157;28;20924;-43
2022/02/21 09:43:25;;;;;;;6.73;2.83;;;;;;;;;;5011459;28;20806;-43
2022/02/21 09:45:55;;;;;;;8.37;1.97;;;;;;;;;;5011108;28;20880;-43
2022/02/21 09:48:21;;;;;;;4.50;1.83;;;;;;;;;;5010967;28;20441;-43
2022/02/21 09:50:47;;;;;;;6.33;2.20;;;;;;;;;;5010996;28;20397;-43
2022/02/21 09:53:13;;;;;;;2.23;1.60;;;;;;;;;;5011120;28;20455;-43
2022/02/21 09:55:39;;;;;;;12.67;2.33;;;;;;;;;;5011163;28;20416;-43
2022/02/21 09:58:05;;;;;;;5.83;2.00;;;;;;;;;;5010710;28;20552;-43
2022/02/21 10:00:32;;;;;;;8.90;1.77;;;;;;;;;;5011102;28;20449;-43
2022/02/21 10:02:58;;;;;;;6.43;2.10;;;;;;;;;;5011175;28;20993;-43
2022/02/21 10:05:25;;;;;;;18.43;2.70;;;;;;;;;;5011237;28;20401;-43
2022/02/21 10:07:52;;;;;;;10.73;2.50;;;;;;;;;;5011036;28;20436;-43
2022/02/21 10:10:20;;;;;;;1.97;1.50;;;;;;;;;;5010939;28;20405;-43
2022/02/21 10:12:46;;;;;;;2.73;1.67;;;;;;;;;;5010801;28;20405;-43
2022/02/21 10:15:15;;;;;;;7.80;2.33;;;;;;;;;;5011023;28;20487;-43
2022/02/21 10:17:41;;;;;;;6.77;2.17;;;;;;;;;;5010834;28;20451;-43
2022/02/21 10:20:07;;;;;;;6.87;2.50;;;;;;;;;;5013286;28;20411;-43
2022/02/21 10:22:34;;;;;;;11.45;2.03;;;;;;;;;;5014812;28;20395;-43
2022/02/21 10:25:00;;;;;;;4.20;2.30;;;;;;;;;;5014613;28;20251;-43
2022/02/21 10:27:29;;;;;;;9.33;2.53;;;;;;;;;;5014612;28;20566;-43
2022/02/21 10:29:55;;;;;;;10.03;2.50;;;;;;;;;;5014438;28;21065;-43
2022/02/21 10:32:25;;;;;;;5.10;2.30;;;;;;;;;;5014533;28;20463;-43
2022/02/21 10:34:51;;;;;;;11.97;2.10;;;;;;;;;;5014471;28;20399;-43
2022/02/21 10:37:22;;;;;;;5.32;2.30;;;;;;;;;;5014363;28;20788;-42
2022/02/21 10:39:48;;;;;;;7.75;2.30;;;;;;;;;;5014269;28;20180;-43
2022/02/21 10:42:24;;;;;;;12.65;2.65;;;;;;;;;;5014385;28;20172;-43
2022/02/21 10:44:50;;;;;;;4.25;1.85;;;;;;;;;;5014648;28;20168;-43
2022/02/21 10:47:17;;;;;;;12.53;2.90;;;;;;;;;;5014294;28;20188;-43
2022/02/21 10:49:46;;;;;;;5.00;2.20;;;;;;;;;;5014109;28;20403;-42
2022/02/21 10:52:14;;;;;;;10.45;2.35;;;;;;;;;;5014224;28;20176;-43
2022/02/21 10:54:40;;;;;;;10.43;3.20;;;;;;;;;;5014193;28;20238;-43
2022/02/21 10:57:10;;;;;;;10.07;1.92;;;;;;;;;;5013800;28;20200;-43
2022/02/21 10:59:36;;;;;;;7.10;2.50;;;;;;;;;;5013918;28;20176;-43
2022/02/21 11:02:02;;;;;;;10.65;3.00;;;;;;;;;;5013888;28;20172;-43
2022/02/21 11:04:29;;;;;;;5.95;2.78;;;;;;;;;;5014023;28;20255;-43
2022/02/21 11:06:55;;;;;;;11.27;2.50;;;;;;;;;;5013921;28;20245;-43
2022/02/21 11:09:25;;;;;;;4.38;2.30;;;;;;;;;;5013638;28;20172;-43
2022/02/21 11:11:52;;;;;;;2.65;2.25;;;;;;;;;;5013648;28;20251;-43
2022/02/21 11:14:20;;;;;;;10.57;2.15;;;;;;;;;;5013586;28;20179;-43
2022/02/21 11:16:46;;;;;;;17.23;3.45;;;;;;;;;;5014781;28;20202;-43
2022/02/21 11:19:13;;;;;;;2.75;1.85;;;;;;;;;;5013627;28;20226;-43
2022/02/21 11:21:39;;;;;;;7.47;2.50;;;;;;;;;;5013740;28;20177;-43
2022/02/21 11:24:06;;;;;;;9.00;2.17;;;;;;;;;;5013272;28;20172;-43
2022/02/21 11:26:35;;;;;;;5.90;2.38;;;;;;;;;;5013472;28;20231;-43
2022/02/21 11:29:24;;;;;;;9.73;2.22;;;;;;;;;;5013270;28;20177;-43
2022/02/21 11:31:50;;;;;;;5.65;2.20;;;;;;;;;;5002845;28;20283;-43
2022/02/21 11:34:16;;;;;;;7.50;2.77;;;;;;;;;;5013216;28;20262;-43
2022/02/21 11:36:45;;;;;;;5.78;2.55;;;;;;;;;;5013250;28;20919;-42
2022/02/21 11:39:22;;;;;;;8.52;3.20;;;;;;;;;;5013109;28;20189;-44
2022/02/21 11:42:02;;;;;;;6.13;2.47;;;;;;;;;;5013145;28;20196;-43
2022/02/21 11:44:28;;;;;;;7.78;2.53;;;;;;;;;;5013154;28;20595;-43
2022/02/21 11:47:07;;;;;;;5.07;2.20;;;;;;;;;;5012973;28;20180;-43
2022/02/21 11:49:33;;;;;;;4.22;2.50;;;;;;;;;;5012842;28;20203;-43
2022/02/21 11:52:19;;;;;;;5.17;2.10;;;;;;;;;;5013311;28;20196;-43
2022/02/21 11:54:46;;;;;;;4.35;2.00;;;;;;;;;;5012691;28;20891;-44
2022/02/21 11:57:12;;;;;;;6.85;2.42;;;;;;;;;;5012709;28;20204;-43
2022/02/21 11:59:38;;;;;;;6.38;2.83;;;;;;;;;;5012608;28;20192;-43
2022/02/21 12:02:04;;;;;;;4.28;2.22;;;;;;;;;;5013131;28;20160;-42
2022/02/21 12:04:52;;;;;;;7.03;2.47;;;;;;;;;;5012824;28;20219;-42
2022/02/21 12:07:26;;;;;;;6.15;2.60;;;;;;;;;;5002902;28;20435;-43
2022/02/21 12:10:10;;;;;;;10.07;2.85;;;;;;;;;;5012307;28;20160;-42
2022/02/21 12:12:57;;;;;;;6.90;2.60;;;;;;;;;;5012813;28;20686;-43
2022/02/21 12:15:24;;;;;;;7.40;2.10;;;;;;;;;;5012543;28;20640;-43
2022/02/21 12:18:01;;;;;;;6.55;2.20;;;;;;;;;;5012549;28;20287;-43
2022/02/21 12:20:26;;;;;;;2.85;1.60;;;;;;;;;;5012395;28;20160;-43
2022/02/21 12:23:07;;;;;;;7.67;1.50;;;;;;;;;;5012304;28;20651;-43
2022/02/21 12:25:40;;;;;;;4.20;2.00;;;;;;;;;;5012323;28;20453;-43
2022/02/21 12:28:13;;;;;;;2.28;1.75;;;;;;;;;;5012352;28;20271;-44
2022/02/21 12:30:43;;;;;;;6.53;2.22;;;;;;;;;;5012148;28;20172;-43
2022/02/21 12:33:11;;;;;;;4.20;1.67;;;;;;;;;;5012199;28;20200;-43
2022/02/21 12:35:53;;;;;;;2.80;1.65;;;;;;;;;;5012177;28;20252;-43
2022/02/21 12:38:19;;;;;;;7.38;2.05;;;;;;;;;;5011881;28;20185;-43
2022/02/21 12:40:52;;;;;;;5.05;1.92;;;;;;;;;;5011987;28;20263;-43
2022/02/21 12:43:18;;;;;;;5.35;1.77;;;;;;;;;;5011188;28;20649;-43
2022/02/21 12:45:44;;;;;;;3.53;1.53;;;;;;;;;;5011988;28;20219;-43
2022/02/21 12:48:10;;;;;;;8.13;1.85;;;;;;;;;;5011846;28;20503;-43
2022/02/21 12:50:36;;;;;;;4.13;2.17;;;;;;;;;;5011661;28;20204;-43
2022/02/21 12:53:04;;;;;;;11.07;2.10;;;;;;;;;;5011562;28;20207;-43
2022/02/21 12:55:30;;;;;;;5.72;1.90;;;;;;;;;;5011858;28;20454;-43
2022/02/21 12:57:56;;;;;;;7.03;2.10;;;;;;;;;;5011672;28;20262;-42
2022/02/21 13:00:32;;;;;;;3.47;1.88;;;;;;;;;;5012292;28;20586;-42
2022/02/21 13:02:58;;;;;;;6.90;1.98;;;;;;;;;;5011750;28;20167;-42
2022/02/21 13:05:26;;;;;;;5.23;1.90;;;;;;;;;;5011834;28;20232;-42
2022/02/21 13:07:54;;;;;;;4.60;1.80;;;;;;;;;;5011639;28;20435;-42
2022/02/21 13:10:20;;;;;;;12.13;3.45;;;;;;;;;;5011352;28;20171;-42
2022/02/21 13:12:48;;;;;;;8.77;2.50;;;;;;;;;;5011749;28;20184;-43
2022/02/21 13:15:14;;;;;;;10.93;3.10;;;;;;;;;;5011664;28;20164;-42
2022/02/21 13:17:40;;;;;;;5.97;2.67;;;;;;;;;;5011421;28;20207;-42
2022/02/21 13:20:07;;;;;;;6.80;2.60;;;;;;;;;;5010908;28;20399;-42
2022/02/21 13:22:36;;;;;;;7.95;2.58;;;;;;;;;;5011688;28;20439;-42
2022/02/21 13:25:03;;;;;;;6.07;2.30;;;;;;;;;;5011454;28;20157;-42
2022/02/21 13:27:32;;;;;;;9.15;2.50;;;;;;;;;;5011352;28;20176;-44
2022/02/21 13:29:58;;;;;;;6.90;2.08;;;;;;;;;;5011157;28;20168;-42
2022/02/21 13:32:37;;;;;;;4.78;2.30;;;;;;;;;;5010950;28;20247;-42
2022/02/21 13:35:03;;;;;;;3.85;2.55;;;;;;;;;;5011698;28;20523;-42
2022/02/21 13:37:32;;;;;;;4.23;1.63;;;;;;;;;;5011066;28;20195;-42
2022/02/21 13:40:00;;;;;;;5.57;2.28;;;;;;;;;;5010993;28;20427;-42
2022/02/21 13:42:42;;;;;;;9.65;2.55;;;;;;;;;;5011100;28;20577;-42
2022/02/21 13:45:15;;;;;;;6.28;1.75;;;;;;;;;;5010876;28;21032;-42
2022/02/21 13:47:41;;;;;;;5.00;1.83;;;;;;;;;;5011020;28;20196;-43
2022/02/21 13:50:07;;;;;;;3.75;1.65;;;;;;;;;;5010854;28;20225;-42
2022/02/21 13:52:49;;;;;;;4.40;2.25;;;;;;;;;;5011177;28;20538;-42
2022/02/21 13:55:22;;;;;;;3.53;1.88;;;;;;;;;;5015115;28;20172;-42
2022/02/21 13:57:58;;;;;;;6.50;2.30;;;;;;;;;;5014696;28;20216;-42
2022/02/21 14:00:38;;;;;;;8.02;2.40;;;;;;;;;;5014867;28;20167;-42
2022/02/21 14:03:04;;;;;;;3.30;1.98;;;;;;;;;;5015030;28;20173;-42
2022/02/21 14:05:30;;;;;;;10.18;2.75;;;;;;;;;;5015006;28;20203;-42
2022/02/21 14:07:56;;;;;;;9.00;2.37;;;;;;;;;;5014678;28;20195;-41
2022/02/21 14:10:24;;;;;;;9.03;2.27;;;;;;;;;;5014789;28;20407;-41
2022/02/21 14:12:57;;;;;;;5.35;2.80;;;;;;;;;;5015176;28;20842;-42
2022/02/21 14:15:23;;;;;;;14.55;2.95;;;;;;;;;;5014476;28;20247;-42
2022/02/21 14:17:49;;;;;;;4.43;2.25;;;;;;;;;;5014751;28;20210;-42
2022/02/21 14:20:15;;;;;;;8.95;3.08;;;;;;;;;;5014417;28;20173;-42
2022/02/21 14:22:41;;;;;;;6.77;2.97;;;;;;;;;;5014464;28;20351;-42
2022/02/21 14:25:08;;;;;;;9.03;2.83;;;;;;;;;;5014635;28;20407;-42
2022/02/21 14:27:34;;;;;;;8.35;3.75;;;;;;;;;;5014599;28;20419;-42
2022/02/21 14:30:00;;;;;;;4.97;3.17;;;;;;;;;;5014350;28;20169;-42
2022/02/21 14:32:27;;;;;;;5.72;2.80;;;;;;;;;;5014385;28;20210;-43
2022/02/21 14:34:53;;;;;;;9.57;3.53;;;;;;;;;;5014435;28;20226;-42
2022/02/21 14:37:20;;;;;;;9.88;4.63;;;;;;;;;;5014448;28;20207;-41
2022/02/21 14:39:46;;;;;;;15.02;5.32;;;;;;;;;;5014116;28;20164;-44